Dow City, Iowa
Current Conditions -  °F | °C
As of 8:15 AM on Wednesday 26 Nov 2014 (Local Time) from KDNS Reporting Station
Light Snow Light Snow  
Wind Chill: 26°   Ceiling: 400
Heat Index: 32°   Visibility: 2mi
Dew Point: 32°   Wind: 6mph
Humidity: 100%   Direction: 10°N
Pressure: 29.88"   Gusts: NA
Location:  41.93°N, 95.49°W
Report Text: KDNS 261415Z AUTO 01005KT 2SM -SN OVC004 M00/M00 A2988 RMK AO2
Loading
Personal Weather Stations






























Interactive Weather Map New forecast layout! Learn more

10-Day Weather Forecast

Advertisements
Track Severe Weather on mobile